Time;durP1;ratioP1;P1;durP2;ratioP2;P2;SDS_P1;SDS_P2;PMS_P1;PMS_P2;Temp;Humidity;BMP_temperature;BMP_pressure;BME280_temperature;BME280_humidity;BME280_pressure;Samples;Min_cycle;Max_cycle;Signal;HPM_P1;HPM_P2
2023/09/01 00:00:18;;;;;;;;;;;12.10;99.90;;;;;;7310349;19;9741;-71
2023/09/01 00:02:47;;;;;;;;;;;12.10;99.90;;;;;;7309544;19;9233;-72
2023/09/01 00:05:17;;;;;;;;;;;12.10;99.90;;;;;;7310855;19;10335;-71
2023/09/01 00:07:50;;;;;;;;;;;12.00;99.90;;;;;;7310030;19;9276;-71
2023/09/01 00:10:19;;;;;;;;;;;12.00;99.90;;;;;;7302315;19;9371;-71
2023/09/01 00:12:48;;;;;;;;;;;11.90;99.90;;;;;;7309832;19;9315;-71
2023/09/01 00:15:20;;;;;;;;;;;11.90;99.90;;;;;;7307484;19;11573;-72
2023/09/01 00:17:49;;;;;;;;;;;11.90;99.90;;;;;;7312382;19;9657;-71
2023/09/01 00:20:18;;;;;;;;;;;11.90;99.90;;;;;;7306071;19;10002;-71
2023/09/01 00:22:47;;;;;;;;;;;11.80;99.90;;;;;;7310341;19;9284;-71
2023/09/01 00:25:16;;;;;;;;;;;11.80;99.90;;;;;;7311728;19;9198;-72
2023/09/01 00:27:45;;;;;;;;;;;11.80;99.90;;;;;;7305900;19;9228;-71
2023/09/01 00:30:15;;;;;;;;;;;11.80;99.90;;;;;;7310323;19;9383;-71
2023/09/01 00:33:07;;;;;;;;;;;11.80;99.90;;;;;;7307852;19;9526;-71
2023/09/01 00:35:37;;;;;;;;;;;11.70;99.90;;;;;;7309476;19;9437;-72
2023/09/01 00:38:06;;;;;;;;;;;11.70;99.90;;;;;;7308945;19;9490;-72
2023/09/01 00:40:56;;;;;;;;;;;11.60;99.90;;;;;;7306341;19;9190;-72
2023/09/01 00:43:25;;;;;;;;;;;11.60;99.90;;;;;;7311626;19;9347;-72
2023/09/01 00:45:54;;;;;;;;;;;11.60;99.90;;;;;;7307234;19;9671;-71
2023/09/01 00:48:26;;;;;;;;;;;11.60;99.90;;;;;;7309644;19;9428;-72
2023/09/01 00:50:55;;;;;;;;;;;11.60;99.90;;;;;;7308522;19;9362;-72
2023/09/01 00:53:25;;;;;;;;;;;11.60;99.90;;;;;;7308996;19;9736;-72
2023/09/01 00:55:57;;;;;;;;;;;11.60;99.90;;;;;;7307240;19;9383;-72
2023/09/01 00:58:27;;;;;;;;;;;11.60;99.90;;;;;;7309078;19;9654;-72
2023/09/01 01:00:58;;;;;;;;;;;11.60;99.90;;;;;;7310506;19;8945;-71
2023/09/01 01:03:30;;;;;;;;;;;11.60;99.90;;;;;;7308051;19;9439;-72
2023/09/01 01:06:21;;;;;;;;;;;11.60;99.90;;;;;;7309795;19;9427;-72
2023/09/01 01:09:08;;;;;;;;;;;11.60;99.90;;;;;;7309850;19;10963;-72
2023/09/01 01:11:47;;;;;;;;;;;11.60;99.90;;;;;;7311161;19;9304;-71
2023/09/01 01:14:24;;;;;;;;;;;11.60;99.90;;;;;;7309067;19;9360;-71
2023/09/01 01:16:55;;;;;;;;;;;11.60;99.90;;;;;;7310776;19;9588;-71
2023/09/01 01:19:48;;;;;;;;;;;11.60;99.90;;;;;;7312298;19;9242;-71
2023/09/01 01:22:25;;;;;;;;;;;11.60;99.90;;;;;;7312847;19;9573;-71
2023/09/01 01:24:57;;;;;;;;;;;11.60;99.90;;;;;;7309896;19;10384;-72
2023/09/01 01:27:26;;;;;;;;;;;11.50;99.90;;;;;;7310197;19;9469;-71
2023/09/01 01:29:55;;;;;;;;;;;11.50;99.90;;;;;;7310951;19;9127;-71
2023/09/01 01:32:24;;;;;;;;;;;11.50;99.90;;;;;;7307973;19;9315;-72
2023/09/01 01:35:06;;;;;;;;;;;11.50;99.90;;;;;;7309247;19;10151;-71
2023/09/01 01:37:43;;;;;;;;;;;11.50;99.90;;;;;;7314632;19;9248;-72
2023/09/01 01:40:17;;;;;;;;;;;11.50;99.90;;;;;;7316115;19;9084;-72
2023/09/01 01:42:48;;;;;;;;;;;11.50;99.90;;;;;;7314757;19;9297;-71
2023/09/01 01:45:20;;;;;;;;;;;11.50;99.90;;;;;;7312505;19;9379;-72
2023/09/01 01:47:50;;;;;;;;;;;11.50;99.90;;;;;;7312766;19;9468;-71
2023/09/01 01:50:19;;;;;;;;;;;11.50;99.90;;;;;;7313688;19;9480;-72
2023/09/01 01:52:48;;;;;;;;;;;11.50;99.90;;;;;;7312026;19;8992;-71
2023/09/01 01:55:20;;;;;;;;;;;11.40;99.90;;;;;;7313401;19;9203;-72
2023/09/01 01:57:49;;;;;;;;;;;11.30;99.90;;;;;;7312842;19;9283;-71
2023/09/01 02:00:19;;;;;;;;;;;11.30;99.90;;;;;;7312173;19;9518;-71
2023/09/01 02:02:48;;;;;;;;;;;11.30;99.90;;;;;;7320943;19;9488;-72
2023/09/01 02:05:17;;;;;;;;;;;11.30;99.90;;;;;;7312011;19;9493;-71
2023/09/01 02:07:46;;;;;;;;;;;11.20;99.90;;;;;;7315357;19;9129;-72
2023/09/01 02:10:17;;;;;;;;;;;11.10;99.90;;;;;;7310442;19;10521;-71
2023/09/01 02:12:49;;;;;;;;;;;11.10;99.90;;;;;;7313714;19;9463;-71
2023/09/01 02:15:18;;;;;;;;;;;11.10;99.90;;;;;;7312512;19;9131;-71
2023/09/01 02:17:47;;;;;;;;;;;11.10;99.90;;;;;;7310402;19;9274;-71
2023/09/01 02:20:19;;;;;;;;;;;11.10;99.90;;;;;;7313451;19;9377;-72
2023/09/01 02:22:50;;;;;;;;;;;11.10;99.90;;;;;;7315032;19;9471;-71
2023/09/01 02:25:20;;;;;;;;;;;11.10;99.90;;;;;;7309326;19;9248;-71
2023/09/01 02:27:51;;;;;;;;;;;11.00;99.90;;;;;;7310379;19;9333;-71
2023/09/01 02:30:20;;;;;;;;;;;11.00;99.90;;;;;;7313406;19;9141;-71
2023/09/01 02:32:49;;;;;;;;;;;10.90;99.90;;;;;;7310509;19;9371;-71
2023/09/01 02:35:19;;;;;;;;;;;10.90;99.90;;;;;;7312417;19;10543;-71
2023/09/01 02:37:49;;;;;;;;;;;10.90;99.90;;;;;;7311525;19;9306;-71
2023/09/01 02:40:18;;;;;;;;;;;10.90;99.90;;;;;;7313881;19;9464;-72
2023/09/01 02:42:47;;;;;;;;;;;10.90;99.90;;;;;;7313275;19;9463;-71
2023/09/01 02:45:19;;;;;;;;;;;10.90;99.90;;;;;;7306440;19;9501;-72
2023/09/01 02:47:48;;;;;;;;;;;10.90;99.90;;;;;;7313931;19;9437;-71
2023/09/01 02:50:17;;;;;;;;;;;10.90;99.90;;;;;;7306640;19;9089;-72
2023/09/01 02:52:46;;;;;;;;;;;10.90;99.90;;;;;;7312102;19;9435;-71
2023/09/01 02:55:17;;;;;;;;;;;10.90;99.90;;;;;;7313766;19;9401;-71
2023/09/01 02:57:47;;;;;;;;;;;10.90;99.90;;;;;;7310762;19;10814;-71
2023/09/01 03:00:21;;;;;;;;;;;10.80;99.90;;;;;;7312830;19;9330;-72
2023/09/01 03:02:51;;;;;;;;;;;10.90;99.90;;;;;;7313280;19;9759;-71
2023/09/01 03:05:20;;;;;;;;;;;10.90;99.90;;;;;;7320289;19;9523;-71
2023/09/01 03:07:49;;;;;;;;;;;10.90;99.90;;;;;;7320918;19;9197;-71
2023/09/01 03:10:18;;;;;;;;;;;10.90;99.90;;;;;;7316769;19;9395;-71
2023/09/01 03:13:07;;;;;;;;;;;10.90;99.90;;;;;;7316349;19;10147;-71
2023/09/01 03:15:40;;;;;;;;;;;10.90;99.90;;;;;;7315132;19;9573;-71
2023/09/01 03:18:28;;;;;;;;;;;10.90;99.90;;;;;;7317190;19;9176;-71
2023/09/01 03:21:10;;;;;;;;;;;10.90;99.90;;;;;;7313677;19;9296;-71
2023/09/01 03:23:39;;;;;;;;;;;10.90;99.90;;;;;;7318867;19;9273;-71
2023/09/01 03:26:08;;;;;;;;;;;10.80;99.90;;;;;;7319423;19;9506;-72
2023/09/01 03:28:37;;;;;;;;;;;10.70;99.90;;;;;;7314391;19;9266;-72
2023/09/01 03:31:14;;;;;;;;;;;10.70;99.90;;;;;;7313473;19;9478;-72
2023/09/01 03:33:43;;;;;;;;;;;10.80;99.90;;;;;;7316268;19;9733;-72
2023/09/01 03:36:13;;;;;;;;;;;10.80;99.90;;;;;;7316025;19;10597;-71
2023/09/01 03:38:43;;;;;;;;;;;10.80;99.90;;;;;;7319779;19;9327;-71
2023/09/01 03:41:12;;;;;;;;;;;10.80;99.90;;;;;;7312244;19;9475;-71
2023/09/01 03:43:41;;;;;;;;;;;10.80;99.90;;;;;;7314790;19;10402;-71
2023/09/01 03:46:09;;;;;;;;;;;10.80;99.90;;;;;;7320420;19;9361;-71
2023/09/01 03:48:41;;;;;;;;;;;10.80;99.90;;;;;;7322042;19;9532;-71
2023/09/01 03:51:12;;;;;;;;;;;10.70;99.90;;;;;;7316227;19;9324;-72
2023/09/01 03:53:41;;;;;;;;;;;10.70;99.90;;;;;;7323015;19;9365;-71
2023/09/01 03:56:12;;;;;;;;;;;10.70;99.90;;;;;;7321500;19;10453;-72
2023/09/01 03:58:42;;;;;;;;;;;10.60;99.90;;;;;;7322552;19;10524;-71
2023/09/01 04:01:13;;;;;;;;;;;10.60;99.90;;;;;;7321812;19;9264;-71
2023/09/01 04:03:46;;;;;;;;;;;10.50;99.90;;;;;;7319766;19;9254;-71
2023/09/01 04:06:15;;;;;;;;;;;10.50;99.90;;;;;;7320335;19;9351;-71
2023/09/01 04:08:45;;;;;;;;;;;10.50;99.90;;;;;;7309430;19;9754;-71
2023/09/01 04:11:14;;;;;;;;;;;10.50;99.90;;;;;;7320517;19;10702;-71
2023/09/01 04:13:43;;;;;;;;;;;10.40;99.90;;;;;;7322128;19;9485;-71
2023/09/01 04:16:12;;;;;;;;;;;10.40;99.90;;;;;;7321618;19;9596;-72
2023/09/01 04:18:41;;;;;;;;;;;10.40;99.90;;;;;;7321962;19;9052;-71
2023/09/01 04:21:13;;;;;;;;;;;10.40;99.90;;;;;;7319950;19;9296;-72
2023/09/01 04:23:42;;;;;;;;;;;10.40;99.90;;;;;;7322037;19;9258;-71
2023/09/01 04:26:11;;;;;;;;;;;10.40;99.90;;;;;;7321363;19;9250;-72
2023/09/01 04:28:40;;;;;;;;;;;10.40;99.90;;;;;;7321243;19;10484;-71
2023/09/01 04:31:32;;;;;;;;;;;10.40;99.90;;;;;;7318041;19;9262;-72
2023/09/01 04:34:01;;;;;;;;;;;10.40;99.90;;;;;;7310942;19;9709;-71
2023/09/01 04:36:33;;;;;;;;;;;10.40;99.90;;;;;;7309811;19;9668;-71
2023/09/01 04:39:04;;;;;;;;;;;10.40;99.90;;;;;;7312311;19;9577;-71
2023/09/01 04:41:33;;;;;;;;;;;10.40;99.90;;;;;;7305360;19;9288;-71
2023/09/01 04:44:22;;;;;;;;;;;10.40;99.90;;;;;;7309061;19;9628;-71
2023/09/01 04:46:51;;;;;;;;;;;10.40;99.90;;;;;;7309676;19;9758;-71
2023/09/01 04:49:20;;;;;;;;;;;10.40;99.90;;;;;;7308088;19;10601;-71
2023/09/01 04:52:00;;;;;;;;;;;10.40;99.90;;;;;;7304899;19;9300;-71
2023/09/01 04:54:34;;;;;;;;;;;10.40;99.90;;;;;;7309970;19;9235;-72
2023/09/01 04:57:03;;;;;;;;;;;10.40;99.90;;;;;;7302463;19;9765;-72
2023/09/01 04:59:32;;;;;;;;;;;10.30;99.90;;;;;;7317100;19;9224;-71
2023/09/01 05:02:02;;;;;;;;;;;10.30;99.90;;;;;;7315902;19;9508;-71
2023/09/01 05:04:31;;;;;;;;;;;10.30;99.90;;;;;;7316583;19;9340;-71
2023/09/01 05:07:03;;;;;;;;;;;10.40;99.90;;;;;;7320618;19;9468;-71
2023/09/01 05:09:32;;;;;;;;;;;10.40;99.90;;;;;;7318290;19;9230;-71
2023/09/01 05:12:01;;;;;;;;;;;10.40;99.90;;;;;;7321604;19;10372;-71
2023/09/01 05:14:30;;;;;;;;;;;10.40;99.90;;;;;;7320652;19;9581;-71
2023/09/01 05:17:00;;;;;;;;;;;10.40;99.90;;;;;;7320666;19;9270;-71
2023/09/01 05:19:29;;;;;;;;;;;10.50;99.90;;;;;;7319336;19;9169;-72
2023/09/01 05:21:58;;;;;;;;;;;10.50;99.90;;;;;;7320773;19;9150;-71
2023/09/01 05:24:29;;;;;;;;;;;10.50;99.90;;;;;;7316570;19;10303;-71
2023/09/01 05:26:58;;;;;;;;;;;10.50;99.90;;;;;;7320586;19;9336;-71
2023/09/01 05:29:30;;;;;;;;;;;10.50;99.90;;;;;;7319701;19;9281;-71
2023/09/01 05:31:59;;;;;;;;;;;10.60;99.90;;;;;;7316430;19;9272;-71
2023/09/01 05:34:28;;;;;;;;;;;10.60;99.90;;;;;;7320456;19;9206;-71
2023/09/01 05:36:58;;;;;;;;;;;10.60;99.90;;;;;;7316403;19;9488;-71
2023/09/01 05:39:30;;;;;;;;;;;10.70;99.90;;;;;;7319358;19;9221;-71
2023/09/01 05:41:59;;;;;;;;;;;10.70;99.90;;;;;;7319248;19;9235;-71
2023/09/01 05:44:27;;;;;;;;;;;10.70;99.90;;;;;;7320012;19;9164;-72
2023/09/01 05:46:56;;;;;;;;;;;10.80;99.90;;;;;;7319109;19;9225;-71
2023/09/01 05:49:45;;;;;;;;;;;10.80;99.90;;;;;;7318247;19;9335;-71
2023/09/01 05:52:14;;;;;;;;;;;10.70;99.90;;;;;;7317261;19;10624;-71
2023/09/01 05:54:46;;;;;;;;;;;10.70;99.90;;;;;;7317477;19;9420;-71
2023/09/01 05:57:15;;;;;;;;;;;10.80;99.90;;;;;;7316364;19;9386;-72
2023/09/01 05:59:44;;;;;;;;;;;10.80;99.90;;;;;;7308068;19;9528;-71
2023/09/01 06:02:13;;;;;;;;;;;11.20;99.90;;;;;;7307880;19;9325;-71
2023/09/01 06:04:42;;;;;;;;;;;11.30;99.90;;;;;;7312027;19;9785;-71
2023/09/01 06:07:11;;;;;;;;;;;11.30;99.90;;;;;;7318080;19;9000;-71
2023/09/01 06:09:40;;;;;;;;;;;11.30;99.90;;;;;;7318780;19;9243;-71
2023/09/01 06:12:34;;;;;;;;;;;11.40;99.90;;;;;;7315249;19;9541;-71
2023/09/01 06:15:03;;;;;;;;;;;11.40;99.90;;;;;;7314641;19;9213;-71
2023/09/01 06:17:32;;;;;;;;;;;11.50;99.90;;;;;;7318721;19;8944;-71
2023/09/01 06:20:04;;;;;;;;;;;11.50;99.90;;;;;;7315327;19;9526;-72
2023/09/01 06:22:36;;;;;;;;;;;11.60;99.90;;;;;;7317643;19;9292;-71
2023/09/01 06:25:05;;;;;;;;;;;11.70;99.90;;;;;;7313633;19;9287;-72
2023/09/01 06:27:37;;;;;;;;;;;11.80;99.90;;;;;;7321563;19;9315;-71
2023/09/01 06:30:08;;;;;;;;;;;11.80;99.90;;;;;;7309867;19;9176;-72
2023/09/01 06:32:37;;;;;;;;;;;11.90;99.90;;;;;;7314444;19;9382;-72
2023/09/01 06:35:07;;;;;;;;;;;12.00;99.90;;;;;;7313526;19;9617;-72
2023/09/01 06:37:37;;;;;;;;;;;12.10;99.90;;;;;;7324217;19;9134;-72
2023/09/01 06:40:07;;;;;;;;;;;12.10;99.90;;;;;;7322872;19;9229;-72
2023/09/01 06:42:38;;;;;;;;;;;12.30;99.90;;;;;;7324682;19;9229;-71
2023/09/01 06:45:09;;;;;;;;;;;12.40;99.90;;;;;;7323989;19;9503;-72
2023/09/01 06:47:38;;;;;;;;;;;12.40;99.90;;;;;;7323723;19;9493;-72
2023/09/01 06:50:08;;;;;;;;;;;12.50;99.90;;;;;;7324503;19;9268;-72
2023/09/01 06:52:37;;;;;;;;;;;12.60;99.90;;;;;;7322802;19;9322;-72
2023/09/01 06:55:06;;;;;;;;;;;12.70;99.90;;;;;;7314780;19;9541;-72
2023/09/01 06:57:41;;;;;;;;;;;12.80;99.90;;;;;;7320083;19;9505;-72
2023/09/01 07:00:11;;;;;;;;;;;12.90;99.90;;;;;;7309119;19;9141;-72
2023/09/01 07:02:40;;;;;;;;;;;13.00;99.90;;;;;;7321001;19;9244;-72
2023/09/01 07:05:10;;;;;;;;;;;13.10;99.90;;;;;;7305657;19;10354;-72
2023/09/01 07:07:39;;;;;;;;;;;13.20;99.90;;;;;;7304752;19;9519;-72
2023/09/01 07:10:08;;;;;;;;;;;13.20;99.90;;;;;;7311679;19;9321;-72
2023/09/01 07:12:37;;;;;;;;;;;13.30;99.90;;;;;;7311950;19;9505;-71
2023/09/01 07:15:10;;;;;;;;;;;13.40;99.90;;;;;;7314034;19;9442;-72
2023/09/01 07:17:39;;;;;;;;;;;13.50;99.90;;;;;;7312022;19;9451;-72
2023/09/01 07:20:10;;;;;;;;;;;13.60;99.90;;;;;;7314470;19;9530;-72
2023/09/01 07:22:39;;;;;;;;;;;13.70;99.90;;;;;;7314350;19;9462;-72
2023/09/01 07:25:11;;;;;;;;;;;13.70;99.90;;;;;;7310271;19;9429;-72
2023/09/01 07:27:40;;;;;;;;;;;13.80;99.90;;;;;;7313180;19;10433;-72
2023/09/01 07:30:13;;;;;;;;;;;13.90;99.90;;;;;;7313689;19;10895;-72
2023/09/01 07:32:42;;;;;;;;;;;14.10;99.90;;;;;;7308332;19;9353;-72
2023/09/01 07:35:12;;;;;;;;;;;14.30;99.90;;;;;;7312327;19;9425;-72
2023/09/01 07:37:41;;;;;;;;;;;14.60;99.90;;;;;;7312598;19;9255;-72
2023/09/01 07:40:11;;;;;;;;;;;14.90;99.90;;;;;;7308749;19;9476;-72
2023/09/01 07:42:40;;;;;;;;;;;15.20;99.90;;;;;;7312289;19;9502;-72
2023/09/01 07:45:12;;;;;;;;;;;15.50;99.90;;;;;;7310790;19;9308;-72
2023/09/01 07:47:42;;;;;;;;;;;15.70;99.90;;;;;;7313636;19;9460;-72
2023/09/01 07:50:12;;;;;;;;;;;16.00;99.90;;;;;;7311058;19;9304;-72
2023/09/01 07:52:41;;;;;;;;;;;16.20;99.90;;;;;;7313116;19;9422;-72
2023/09/01 07:55:10;;;;;;;;;;;16.30;99.90;;;;;;7310532;19;9331;-72
2023/09/01 07:57:39;;;;;;;;;;;16.40;99.90;;;;;;7308995;19;9320;-72
2023/09/01 08:00:13;;;;;;;;;;;16.40;99.90;;;;;;7313546;19;9315;-72
2023/09/01 08:02:42;;;;;;;;;;;16.40;99.90;;;;;;7313067;19;9425;-71
2023/09/01 08:05:14;;;;;;;;;;;16.30;99.90;;;;;;7310426;19;9269;-72
2023/09/01 08:07:45;;;;;;;;;;;16.20;99.90;;;;;;7310588;19;11537;-72
2023/09/01 08:10:14;;;;;;;;;;;16.20;99.90;;;;;;7309761;19;9300;-72
2023/09/01 08:12:43;;;;;;;;;;;16.20;99.90;;;;;;7310817;19;9134;-72
2023/09/01 08:15:15;;;;;;;;;;;16.30;99.90;;;;;;7312180;19;9359;-72
2023/09/01 08:17:45;;;;;;;;;;;16.40;99.90;;;;;;7303108;19;9663;-72
2023/09/01 08:20:14;;;;;;;;;;;16.40;99.90;;;;;;7311168;19;9474;-71
2023/09/01 08:22:43;;;;;;;;;;;16.40;99.90;;;;;;7311325;19;10206;-72
2023/09/01 08:25:13;;;;;;;;;;;16.40;99.90;;;;;;7309857;19;9169;-72
2023/09/01 08:27:42;;;;;;;;;;;16.50;99.90;;;;;;7309820;19;9269;-72
2023/09/01 08:30:13;;;;;;;;;;;16.50;99.90;;;;;;7303592;19;11108;-72
2023/09/01 08:32:45;;;;;;;;;;;16.60;99.90;;;;;;7311345;19;9896;-72
2023/09/01 08:35:14;;;;;;;;;;;16.60;99.90;;;;;;7312372;19;9715;-72
2023/09/01 08:37:44;;;;;;;;;;;16.70;99.90;;;;;;7306595;19;9304;-72
2023/09/01 08:40:14;;;;;;;;;;;16.70;99.90;;;;;;7310191;19;9575;-72
2023/09/01 08:42:48;;;;;;;;;;;16.70;99.90;;;;;;7310146;19;9251;-71
2023/09/01 08:45:19;;;;;;;;;;;16.70;99.90;;;;;;7308924;19;9296;-74
2023/09/01 08:47:52;;;;;;;;;;;16.80;99.90;;;;;;7311195;19;10154;-72
2023/09/01 08:50:22;;;;;;;;;;;16.90;99.90;;;;;;7309489;19;9414;-71
2023/09/01 08:52:51;;;;;;;;;;;17.00;99.90;;;;;;7307951;19;9265;-71
2023/09/01 08:55:20;;;;;;;;;;;17.10;99.90;;;;;;7309024;19;9252;-72
2023/09/01 08:57:51;;;;;;;;;;;17.20;99.90;;;;;;7310215;19;10325;-72
2023/09/01 09:00:20;;;;;;;;;;;17.30;99.90;;;;;;7311386;19;9185;-72
2023/09/01 09:03:14;;;;;;;;;;;17.30;99.90;;;;;;7312129;19;9560;-72
2023/09/01 09:05:44;;;;;;;;;;;17.30;99.90;;;;;;7308552;19;9653;-72
2023/09/01 09:08:13;;;;;;;;;;;17.30;99.90;;;;;;7307835;19;9771;-72
2023/09/01 09:10:43;;;;;;;;;;;17.20;99.90;;;;;;7311657;19;9245;-72
2023/09/01 09:13:25;;;;;;;;;;;17.20;99.90;;;;;;7306825;19;9447;-72
2023/09/01 09:16:10;;;;;;;;;;;17.30;99.90;;;;;;7308253;19;11694;-72
2023/09/01 09:18:43;;;;;;;;;;;17.40;99.90;;;;;;7309462;19;9596;-73
2023/09/01 09:21:28;;;;;;;;;;;17.30;99.90;;;;;;7308420;19;9489;-71
2023/09/01 09:23:59;;;;;;;;;;;17.30;99.90;;;;;;7310108;19;9272;-72
2023/09/01 09:26:29;;;;;;;;;;;17.30;99.90;;;;;;7307307;19;9394;-71
2023/09/01 09:29:04;;;;;;;;;;;17.20;99.90;;;;;;7308813;19;9517;-71
2023/09/01 09:31:36;;;;;;;;;;;17.30;99.90;;;;;;7311424;19;9282;-71
2023/09/01 09:34:22;;;;;;;;;;;17.30;99.90;;;;;;7308261;19;9225;-71
2023/09/01 09:36:52;;;;;;;;;;;17.30;99.90;;;;;;7314980;19;9456;-71
2023/09/01 09:39:43;;;;;;;;;;;17.30;99.90;;;;;;7316958;19;9429;-71
2023/09/01 09:42:12;;;;;;;;;;;17.30;99.90;;;;;;7319478;19;10157;-71
2023/09/01 09:44:40;;;;;;;;;;;17.30;99.90;;;;;;7316001;19;9298;-72
2023/09/01 09:47:12;;;;;;;;;;;17.40;99.90;;;;;;7317116;19;9481;-72
2023/09/01 09:50:06;;;;;;;;;;;17.50;99.90;;;;;;7296401;19;9512;-73
2023/09/01 09:52:37;;;;;;;;;;;17.60;99.90;;;;;;7307256;19;9317;-72
2023/09/01 09:55:10;;;;;;;;;;;17.60;99.90;;;;;;7318769;19;9556;-72
2023/09/01 09:57:45;;;;;;;;;;;17.60;99.90;;;;;;7322832;19;10288;-72
2023/09/01 10:00:16;;;;;;;;;;;17.50;99.90;;;;;;7323289;19;9287;-74
2023/09/01 10:02:52;;;;;;;;;;;17.50;99.90;;;;;;7323549;19;9421;-72
2023/09/01 10:05:25;;;;;;;;;;;17.40;99.90;;;;;;7326277;19;10150;-72
2023/09/01 10:07:56;;;;;;;;;;;17.30;99.90;;;;;;7319431;19;9709;-72
2023/09/01 10:10:26;;;;;;;;;;;17.30;99.90;;;;;;7326479;19;9293;-72
2023/09/01 10:12:56;;;;;;;;;;;17.20;99.90;;;;;;7324981;19;9394;-72
2023/09/01 10:15:27;;;;;;;;;;;17.30;99.90;;;;;;7322203;19;8948;-72
2023/09/01 10:18:00;;;;;;;;;;;17.20;99.90;;;;;;7325386;19;9050;-71
2023/09/01 10:20:32;;;;;;;;;;;17.20;99.90;;;;;;7323014;19;9440;-71
2023/09/01 10:23:05;;;;;;;;;;;17.20;99.90;;;;;;7323345;19;9354;-72
2023/09/01 10:25:35;;;;;;;;;;;17.10;99.90;;;;;;7322103;19;9224;-72
2023/09/01 10:28:10;;;;;;;;;;;17.10;99.90;;;;;;7325578;19;9461;-72
2023/09/01 10:30:41;;;;;;;;;;;17.20;99.90;;;;;;7320602;19;9443;-71
2023/09/01 10:33:12;;;;;;;;;;;17.20;99.90;;;;;;7317510;19;9474;-72
2023/09/01 10:35:46;;;;;;;;;;;17.30;99.90;;;;;;7295442;19;10993;-72
2023/09/01 10:38:18;;;;;;;;;;;17.30;99.90;;;;;;7317037;19;9633;-73
2023/09/01 10:41:07;;;;;;;;;;;17.30;99.90;;;;;;7318029;19;9365;-73
2023/09/01 10:43:55;;;;;;;;;;;17.40;99.90;;;;;;7322698;19;9888;-73
2023/09/01 10:46:28;;;;;;;;;;;17.40;99.90;;;;;;7324480;19;9356;-72
2023/09/01 10:49:00;;;;;;;;;;;17.40;99.90;;;;;;7321312;19;10163;-74
2023/09/01 10:51:34;;;;;;;;;;;17.40;99.90;;;;;;7326063;19;9278;-74
2023/09/01 10:54:23;;;;;;;;;;;17.40;99.90;;;;;;7316734;19;9559;-73
2023/09/01 10:56:59;;;;;;;;;;;17.40;99.90;;;;;;7312825;19;9285;-74
2023/09/01 10:59:31;;;;;;;;;;;17.60;99.90;;;;;;7323716;19;9299;-73
2023/09/01 11:02:20;;;;;;;;;;;17.60;99.90;;;;;;7324281;19;11062;-72
2023/09/01 11:04:50;;;;;;;;;;;17.80;99.90;;;;;;7323388;19;9307;-72
2023/09/01 11:07:22;;;;;;;;;;;17.90;99.90;;;;;;7318343;19;9471;-73
2023/09/01 11:09:56;;;;;;;;;;;18.10;99.90;;;;;;7320471;19;9282;-74
2023/09/01 11:12:33;;;;;;;;;;;18.20;99.90;;;;;;7317968;19;9484;-74
2023/09/01 11:15:05;;;;;;;;;;;18.30;99.90;;;;;;7324152;19;9234;-75
2023/09/01 11:17:45;;;;;;;;;;;18.40;99.90;;;;;;7324908;19;9192;-74
2023/09/01 11:20:19;;;;;;;;;;;18.40;99.90;;;;;;7324689;19;9449;-74
2023/09/01 11:22:50;;;;;;;;;;;18.40;99.90;;;;;;7325078;19;9251;-74
2023/09/01 11:25:20;;;;;;;;;;;18.40;99.90;;;;;;7323136;19;10701;-74
2023/09/01 11:27:53;;;;;;;;;;;18.40;99.90;;;;;;7323099;19;9225;-74
2023/09/01 11:30:54;;;;;;;;;;;18.60;99.90;;;;;;7319125;19;9719;-74
2023/09/01 11:33:24;;;;;;;;;;;18.90;99.90;;;;;;7321709;19;9563;-75
2023/09/01 11:36:06;;;;;;;;;;;19.00;98.90;;;;;;7321497;19;9522;-71
2023/09/01 11:38:37;;;;;;;;;;;19.10;99.30;;;;;;7320854;19;9695;-73
2023/09/01 11:41:28;;;;;;;;;;;19.00;99.30;;;;;;7318928;19;9045;-73
2023/09/01 11:43:57;;;;;;;;;;;19.00;99.00;;;;;;7324152;19;9528;-73
2023/09/01 11:46:34;;;;;;;;;;;19.00;96.80;;;;;;7321458;19;9197;-74
2023/09/01 11:49:03;;;;;;;;;;;19.10;99.30;;;;;;7323132;19;9360;-74
2023/09/01 11:51:33;;;;;;;;;;;19.20;96.30;;;;;;7322784;19;9323;-73
2023/09/01 11:54:06;;;;;;;;;;;19.30;97.10;;;;;;7317627;19;9217;-71
2023/09/01 11:56:35;;;;;;;;;;;19.50;95.80;;;;;;7318127;19;8995;-72
2023/09/01 11:59:04;;;;;;;;;;;19.50;95.70;;;;;;7315408;19;9245;-71
2023/09/01 12:01:41;;;;;;;;;;;19.60;95.60;;;;;;7319211;19;9554;-72
2023/09/01 12:04:12;;;;;;;;;;;19.80;95.40;;;;;;7322375;19;9306;-73
2023/09/01 12:06:44;;;;;;;;;;;19.90;94.50;;;;;;7319955;19;10595;-73
2023/09/01 12:09:18;;;;;;;;;;;19.90;93.70;;;;;;7316840;19;9193;-72
2023/09/01 12:11:57;;;;;;;;;;;20.00;93.80;;;;;;7320131;19;9169;-72
2023/09/01 12:14:29;;;;;;;;;;;20.10;94.80;;;;;;7322554;19;9208;-73
2023/09/01 12:17:00;;;;;;;;;;;20.20;94.70;;;;;;7319034;19;11610;-73
2023/09/01 12:19:30;;;;;;;;;;;20.30;93.70;;;;;;7321798;19;9259;-75
2023/09/01 12:22:00;;;;;;;;;;;20.30;94.30;;;;;;7319213;19;10052;-73
2023/09/01 12:24:32;;;;;;;;;;;20.40;94.30;;;;;;7321251;19;9181;-74
2023/09/01 12:27:01;;;;;;;;;;;20.40;94.60;;;;;;7322440;19;10157;-73
2023/09/01 12:29:30;;;;;;;;;;;20.50;94.20;;;;;;7322756;19;9471;-74
2023/09/01 12:32:00;;;;;;;;;;;20.50;92.40;;;;;;7316172;19;9414;-74
2023/09/01 12:34:29;;;;;;;;;;;20.60;93.10;;;;;;7314590;19;9257;-72
2023/09/01 12:36:58;;;;;;;;;;;20.70;91.60;;;;;;7319018;19;9581;-72
2023/09/01 12:39:27;;;;;;;;;;;20.70;92.40;;;;;;7320273;19;9329;-72
2023/09/01 12:41:58;;;;;;;;;;;20.80;90.80;;;;;;7319483;19;9369;-73
2023/09/01 12:44:27;;;;;;;;;;;20.80;90.90;;;;;;7322898;19;10335;-73
2023/09/01 12:46:56;;;;;;;;;;;20.80;91.00;;;;;;7311788;19;9648;-72
2023/09/01 12:49:25;;;;;;;;;;;20.80;90.60;;;;;;7314021;19;9380;-73
2023/09/01 12:51:54;;;;;;;;;;;20.70;90.30;;;;;;7321356;19;9128;-73
2023/09/01 12:54:23;;;;;;;;;;;20.70;90.50;;;;;;7302619;19;9494;-71
2023/09/01 12:56:52;;;;;;;;;;;20.80;91.30;;;;;;7313637;19;9266;-71
2023/09/01 12:59:25;;;;;;;;;;;21.00;91.30;;;;;;7321678;19;9288;-73
2023/09/01 13:01:54;;;;;;;;;;;21.00;90.40;;;;;;7314728;19;10153;-72
2023/09/01 13:04:23;;;;;;;;;;;21.00;90.80;;;;;;7321781;19;8944;-73
2023/09/01 13:06:52;;;;;;;;;;;21.10;91.30;;;;;;7319236;19;9221;-73
2023/09/01 13:09:21;;;;;;;;;;;21.10;91.80;;;;;;7318922;19;9561;-73
2023/09/01 13:11:50;;;;;;;;;;;20.90;87.20;;;;;;7314088;19;10312;-74
2023/09/01 13:14:19;;;;;;;;;;;20.80;90.90;;;;;;7316884;19;10856;-74
2023/09/01 13:16:50;;;;;;;;;;;20.60;91.50;;;;;;7315825;19;8944;-73
2023/09/01 13:19:19;;;;;;;;;;;20.50;90.50;;;;;;7318746;19;8944;-74
2023/09/01 13:21:50;;;;;;;;;;;20.40;88.60;;;;;;7314034;19;9087;-73
2023/09/01 13:24:19;;;;;;;;;;;20.30;87.90;;;;;;7321068;19;9237;-72
2023/09/01 13:26:48;;;;;;;;;;;20.20;90.40;;;;;;7322049;19;11176;-74
2023/09/01 13:29:17;;;;;;;;;;;20.20;91.50;;;;;;7320786;19;9262;-75
2023/09/01 13:31:50;;;;;;;;;;;20.30;91.80;;;;;;7321287;19;11717;-73
2023/09/01 13:34:19;;;;;;;;;;;20.40;91.80;;;;;;7320376;19;9272;-74
2023/09/01 13:37:12;;;;;;;;;;;20.40;91.70;;;;;;7324627;19;9235;-71
2023/09/01 13:39:41;;;;;;;;;;;20.40;92.60;;;;;;7327708;19;9218;-71
2023/09/01 13:42:11;;;;;;;;;;;20.40;92.50;;;;;;7324589;19;9200;-74
2023/09/01 13:44:40;;;;;;;;;;;20.40;92.30;;;;;;7321450;19;9263;-74
2023/09/01 13:47:12;;;;;;;;;;;20.40;91.80;;;;;;7320498;19;9269;-72
2023/09/01 13:49:42;;;;;;;;;;;20.40;92.30;;;;;;7324233;19;9270;-72
2023/09/01 13:52:11;;;;;;;;;;;20.30;90.30;;;;;;7326204;19;9331;-72
2023/09/01 13:54:40;;;;;;;;;;;20.40;89.00;;;;;;7326760;19;9171;-72
2023/09/01 13:57:10;;;;;;;;;;;20.40;90.30;;;;;;7319003;19;9781;-71
2023/09/01 13:59:39;;;;;;;;;;;20.40;91.50;;;;;;7324007;19;9479;-71
2023/09/01 14:02:11;;;;;;;;;;;20.40;91.40;;;;;;7323902;19;9440;-72
2023/09/01 14:05:00;;;;;;;;;;;20.30;90.80;;;;;;7317667;19;9467;-71
2023/09/01 14:07:50;;;;;;;;;;;20.50;90.60;;;;;;7325117;19;9280;-81
2023/09/01 14:10:20;;;;;;;;;;;20.50;90.00;;;;;;7325966;19;9317;-73
2023/09/01 14:12:49;;;;;;;;;;;20.70;87.20;;;;;;7326818;19;9244;-73
2023/09/01 14:15:18;;;;;;;;;;;20.80;88.10;;;;;;7323532;19;9240;-74
2023/09/01 14:17:50;;;;;;;;;;;20.90;90.20;;;;;;7326455;19;9256;-74
2023/09/01 14:20:19;;;;;;;;;;;21.00;88.90;;;;;;7320478;19;9491;-76
2023/09/01 14:22:48;;;;;;;;;;;21.00;90.00;;;;;;7318084;19;11025;-72
2023/09/01 14:25:17;;;;;;;;;;;21.20;94.60;;;;;;7315535;19;9264;-72
2023/09/01 14:27:46;;;;;;;;;;;20.90;84.20;;;;;;7309288;19;9236;-73
2023/09/01 14:30:15;;;;;;;;;;;20.90;86.90;;;;;;7313843;19;9249;-73
2023/09/01 14:32:45;;;;;;;;;;;21.20;97.00;;;;;;7317824;19;9292;-73
2023/09/01 14:35:17;;;;;;;;;;;21.40;94.30;;;;;;7324124;19;9144;-73
2023/09/01 14:37:46;;;;;;;;;;;21.50;92.90;;;;;;7318049;19;9481;-74
2023/09/01 14:40:15;;;;;;;;;;;21.60;92.90;;;;;;7317424;19;9375;-73
2023/09/01 14:42:46;;;;;;;;;;;21.50;90.40;;;;;;7319123;19;9605;-73
2023/09/01 14:45:15;;;;;;;;;;;21.60;94.10;;;;;;7316689;19;9458;-74
2023/09/01 14:47:44;;;;;;;;;;;21.60;91.80;;;;;;7320892;19;10114;-74
2023/09/01 14:50:20;;;;;;;;;;;21.50;85.40;;;;;;7314065;19;9269;-71
2023/09/01 14:52:49;;;;;;;;;;;21.40;86.90;;;;;;7321441;19;11754;-72
2023/09/01 14:55:18;;;;;;;;;;;21.30;89.30;;;;;;7321959;19;9508;-74